Time;durP1;ratioP1;P1;durP2;ratioP2;P2;SDS_P1;SDS_P2;PMS_P1;PMS_P2;Temp;Humidity;BMP_temperature;BMP_pressure;BME280_temperature;BME280_humidity;BME280_pressure;Samples;Min_cycle;Max_cycle;Signal;HPM_P1;HPM_P2
2022/12/30 00:01:07;;;;;;;4.40;2.37;;;7.60;99.90;;;;;;5045598;28;20260;-63
2022/12/30 00:03:33;;;;;;;4.60;2.43;;;7.60;99.90;;;;;;5033066;28;20182;-63
2022/12/30 00:05:59;;;;;;;6.40;2.07;;;7.60;99.90;;;;;;5062898;28;20192;-64
2022/12/30 00:11:09;;;;;;;4.70;2.30;;;7.70;99.90;;;;;;5058440;28;20186;-64
2022/12/30 00:33:28;;;;;;;6.67;2.10;;;7.40;99.90;;;;;;5049020;28;20549;-63
2022/12/30 00:35:55;;;;;;;2.97;1.80;;;7.40;99.90;;;;;;5042072;28;20177;-64
2022/12/30 00:38:21;;;;;;;6.07;1.87;;;7.30;99.90;;;;;;5039204;28;20206;-64
2022/12/30 00:43:31;;;;;;;6.87;2.27;;;7.20;99.90;;;;;;5056053;28;20188;-65
2022/12/30 00:45:58;;;;;;;8.97;2.17;;;7.20;99.90;;;;;;5048508;28;20190;-63
2022/12/30 00:56:37;;;;;;;7.80;2.80;;;7.30;99.90;;;;;;5042098;28;20750;-65
2022/12/30 00:59:04;;;;;;;2.40;1.50;;;7.40;99.90;;;;;;5053744;28;20182;-63
2022/12/30 01:01:31;;;;;;;9.00;1.90;;;7.50;99.90;;;;;;5061481;28;20224;-63
2022/12/30 01:03:56;;;;;;;11.27;3.17;;;7.40;99.90;;;;;;5044353;28;20182;-64
2022/12/30 01:06:22;;;;;;;7.50;2.53;;;7.50;99.90;;;;;;5060327;28;20190;-64
2022/12/30 01:08:48;;;;;;;4.90;2.63;;;7.40;99.90;;;;;;5050181;28;20267;-64
2022/12/30 01:11:13;;;;;;;7.87;2.67;;;7.50;99.90;;;;;;5040465;28;20186;-63
2022/12/30 01:13:39;;;;;;;8.80;3.20;;;7.50;99.90;;;;;;5051369;28;20206;-63
2022/12/30 01:16:11;;;;;;;27.95;6.50;;;7.70;99.90;;;;;;5036802;28;20190;-64
2022/12/30 01:18:37;;;;;;;12.57;4.70;;;7.70;99.90;;;;;;5040632;28;20194;-64
2022/12/30 01:21:04;;;;;;;17.60;5.53;;;7.70;99.90;;;;;;5034634;28;20192;-65
2022/12/30 01:23:30;;;;;;;4.27;1.90;;;7.70;99.90;;;;;;5044185;28;20261;-63
2022/12/30 01:25:59;;;;;;;9.53;2.93;;;7.60;99.90;;;;;;5035263;28;20321;-64
2022/12/30 01:28:29;;;;;;;6.80;2.23;;;7.50;99.90;;;;;;5035237;28;20248;-64
2022/12/30 01:30:54;;;;;;;8.43;3.30;;;7.30;99.90;;;;;;5050238;28;20643;-64
2022/12/30 01:33:20;;;;;;;4.10;3.03;;;7.20;99.90;;;;;;5044040;28;20181;-65
2022/12/30 01:35:45;;;;;;;9.57;2.30;;;7.20;99.90;;;;;;5048670;28;20636;-64
2022/12/30 01:38:11;;;;;;;8.83;2.43;;;7.30;99.90;;;;;;5035177;28;20194;-64
2022/12/30 01:40:41;;;;;;;3.63;1.97;;;7.30;99.90;;;;;;5036750;28;20222;-64
2022/12/30 01:43:11;;;;;;;8.63;4.67;;;7.40;99.90;;;;;;5052525;28;20185;-64
2022/12/30 01:45:38;;;;;;;7.17;3.70;;;7.50;99.90;;;;;;5041805;28;20224;-63
2022/12/30 01:48:16;;;;;;;7.47;2.43;;;7.50;99.90;;;;;;5049036;28;20650;-64
2022/12/30 01:50:49;;;;;;;10.67;2.83;;;7.30;99.90;;;;;;5042455;28;20174;-64
2022/12/30 01:53:20;;;;;;;3.77;2.10;;;7.30;99.90;;;;;;5041596;28;20166;-63
2022/12/30 01:55:55;;;;;;;4.27;3.37;;;7.20;99.90;;;;;;5037072;28;20198;-64
2022/12/30 01:58:29;;;;;;;9.80;2.80;;;7.30;99.90;;;;;;5053436;28;20224;-65
2022/12/30 02:00:54;;;;;;;3.90;2.63;;;7.40;99.90;;;;;;5050109;28;20185;-64
2022/12/30 02:03:20;;;;;;;9.93;3.33;;;7.30;99.90;;;;;;5036828;28;20193;-63
2022/12/30 02:05:47;;;;;;;9.70;3.03;;;7.20;99.90;;;;;;5038081;28;20540;-63
2022/12/30 02:08:16;;;;;;;5.53;3.60;;;7.20;99.90;;;;;;5036723;28;20585;-64
2022/12/30 02:10:45;;;;;;;18.20;4.30;;;7.20;99.90;;;;;;5048042;28;20733;-65
2022/12/30 02:13:13;;;;;;;4.80;2.57;;;7.30;99.90;;;;;;5038721;28;20185;-64
2022/12/30 02:16:09;;;;;;;11.07;4.13;;;7.40;99.90;;;;;;5049111;28;20623;-64
2022/12/30 02:18:54;;;;;;;11.53;4.77;;;7.40;99.90;;;;;;5042893;28;20178;-64
2022/12/30 02:21:38;;;;;;;9.30;2.30;;;7.30;99.90;;;;;;5050232;28;20182;-64
2022/12/30 02:24:38;;;;;;;9.10;2.67;;;7.40;99.90;;;;;;5034909;28;20651;-64
2022/12/30 02:28:02;;;;;;;8.40;2.60;;;7.50;99.90;;;;;;5040048;28;20260;-63
2022/12/30 02:31:05;;;;;;;4.97;1.97;;;7.40;99.90;;;;;;5043601;28;20196;-63
2022/12/30 02:33:48;;;;;;;4.70;2.40;;;7.40;99.90;;;;;;5046865;28;20210;-64
2022/12/30 02:36:37;;;;;;;8.03;2.63;;;7.30;99.90;;;;;;5040490;28;20201;-64
2022/12/30 02:39:24;;;;;;;6.10;2.17;;;7.30;99.90;;;;;;5050363;28;20639;-65
2022/12/30 02:45:10;;;;;;;3.00;2.73;;;7.30;99.90;;;;;;5037313;28;20682;-63
2022/12/30 02:47:43;;;;;;;6.37;2.50;;;7.30;99.90;;;;;;5042710;28;20182;-63
2022/12/30 02:53:08;;;;;;;7.47;2.70;;;7.20;99.90;;;;;;5044970;28;20289;-63
2022/12/30 02:55:34;;;;;;;2.57;2.37;;;7.20;99.90;;;;;;5051443;28;20206;-64
2022/12/30 02:58:00;;;;;;;9.97;2.03;;;7.20;99.90;;;;;;5048363;28;20211;-64
2022/12/30 03:04:02;;;;;;;6.63;2.03;;;7.10;99.90;;;;;;5055275;28;20197;-63
2022/12/30 03:06:36;;;;;;;10.57;2.53;;;7.10;99.90;;;;;;5041992;28;20202;-64
2022/12/30 03:09:20;;;;;;;7.40;1.97;;;7.00;99.90;;;;;;5051472;28;20181;-63
2022/12/30 03:12:14;;;;;;;3.90;1.83;;;7.10;99.90;;;;;;5038796;28;20243;-63
2022/12/30 03:14:44;;;;;;;3.57;2.27;;;7.20;99.90;;;;;;5036485;28;20178;-63
2022/12/30 03:17:18;;;;;;;5.00;2.90;;;7.20;99.90;;;;;;5046195;28;20601;-64
2022/12/30 03:19:48;;;;;;;5.97;2.43;;;7.20;99.90;;;;;;5052766;28;20627;-64
2022/12/30 03:27:50;;;;;;;4.50;2.37;;;7.00;99.90;;;;;;5046578;28;20251;-63
2022/12/30 03:30:17;;;;;;;7.50;3.17;;;7.00;99.90;;;;;;5044795;28;20210;-63
2022/12/30 03:32:43;;;;;;;5.50;2.40;;;7.00;99.90;;;;;;5041946;28;20228;-64
2022/12/30 03:35:09;;;;;;;5.20;2.10;;;7.20;99.90;;;;;;5048796;28;20187;-64
2022/12/30 03:37:40;;;;;;;8.77;3.03;;;7.00;99.90;;;;;;5039781;28;20209;-63
2022/12/30 03:40:26;;;;;;;8.00;2.97;;;7.00;99.90;;;;;;5046796;28;20228;-64
2022/12/30 03:42:53;;;;;;;7.77;2.50;;;7.10;99.90;;;;;;5042492;28;20174;-64
2022/12/30 03:45:19;;;;;;;9.83;2.73;;;7.10;99.90;;;;;;5048320;28;20655;-64
2022/12/30 03:47:45;;;;;;;8.13;3.00;;;7.00;99.90;;;;;;5044098;28;20273;-63
2022/12/30 03:50:11;;;;;;;3.93;2.63;;;7.00;99.90;;;;;;5040782;28;20261;-64
2022/12/30 03:52:37;;;;;;;7.77;3.03;;;7.00;99.90;;;;;;5044671;28;20188;-63
2022/12/30 03:55:03;;;;;;;7.93;2.77;;;7.10;99.90;;;;;;5042570;28;20210;-64
2022/12/30 03:57:29;;;;;;;7.93;2.30;;;7.00;99.90;;;;;;5049739;28;20212;-64
2022/12/30 03:59:54;;;;;;;2.63;2.43;;;7.10;99.90;;;;;;5044554;28;20190;-64
2022/12/30 04:02:20;;;;;;;5.23;2.43;;;7.10;99.90;;;;;;5049312;28;20193;-63
2022/12/30 04:04:46;;;;;;;7.37;2.73;;;7.00;99.90;;;;;;5027807;28;20190;-63
2022/12/30 04:07:11;;;;;;;11.67;2.33;;;7.00;99.90;;;;;;5032726;28;20652;-63
2022/12/30 04:09:37;;;;;;;6.60;2.10;;;7.00;99.90;;;;;;5045213;28;20671;-63
2022/12/30 04:12:03;;;;;;;4.50;2.77;;;7.00;99.90;;;;;;5043402;28;20194;-63
2022/12/30 04:14:29;;;;;;;4.50;3.07;;;7.10;99.90;;;;;;5037438;28;20185;-64
2022/12/30 04:16:54;;;;;;;4.60;3.33;;;7.00;99.90;;;;;;5041406;28;20608;-64
2022/12/30 04:19:20;;;;;;;5.50;2.27;;;7.00;99.90;;;;;;5050888;28;20186;-63
2022/12/30 04:21:46;;;;;;;8.37;2.57;;;7.10;99.90;;;;;;5039098;28;20197;-64
2022/12/30 04:24:11;;;;;;;6.43;2.13;;;7.00;99.90;;;;;;5050290;28;20542;-64
2022/12/30 04:26:37;;;;;;;6.83;2.90;;;7.00;99.90;;;;;;5036867;28;20256;-64
2022/12/30 04:29:03;;;;;;;7.17;2.20;;;7.10;99.90;;;;;;5033306;28;20701;-64
2022/12/30 04:31:29;;;;;;;7.93;2.13;;;7.10;99.90;;;;;;5020612;28;20179;-64
2022/12/30 04:33:55;;;;;;;10.93;3.07;;;7.10;99.90;;;;;;5036447;28;20185;-63
2022/12/30 04:36:22;;;;;;;6.27;2.43;;;7.10;99.90;;;;;;5050729;28;20611;-63
2022/12/30 04:38:48;;;;;;;5.03;2.27;;;7.10;99.90;;;;;;5042851;28;20197;-62
2022/12/30 04:41:14;;;;;;;9.60;2.37;;;7.00;99.90;;;;;;5039812;28;20210;-64
2022/12/30 04:43:40;;;;;;;5.90;2.00;;;7.00;99.90;;;;;;5033877;28;20218;-64
2022/12/30 04:46:06;;;;;;;5.97;2.93;;;7.00;99.90;;;;;;5038723;28;20190;-63
2022/12/30 04:48:32;;;;;;;3.17;1.93;;;7.00;99.90;;;;;;5038128;28;20262;-63
2022/12/30 04:50:57;;;;;;;1.80;1.67;;;7.10;99.90;;;;;;5045352;28;20278;-64
2022/12/30 04:53:23;;;;;;;12.93;3.40;;;7.00;99.90;;;;;;5034111;28;20183;-63
2022/12/30 04:55:54;;;;;;;7.20;1.80;;;7.00;99.90;;;;;;5040197;28;20214;-64
2022/12/30 04:58:20;;;;;;;3.60;2.13;;;7.00;99.90;;;;;;5042288;28;20674;-64
2022/12/30 05:00:46;;;;;;;6.97;2.87;;;6.90;99.90;;;;;;5047106;28;20257;-64
2022/12/30 05:03:12;;;;;;;4.77;1.97;;;6.80;99.90;;;;;;5046436;28;20186;-64
2022/12/30 05:05:38;;;;;;;9.83;3.03;;;7.00;99.90;;;;;;5017490;28;20187;-64
2022/12/30 05:08:04;;;;;;;7.20;2.60;;;7.00;99.90;;;;;;5032172;28;20655;-64
2022/12/30 05:10:29;;;;;;;12.23;4.23;;;7.00;99.90;;;;;;5050711;28;20189;-63
2022/12/30 05:12:55;;;;;;;9.40;3.03;;;6.90;99.90;;;;;;5050173;28;20186;-64
2022/12/30 05:15:21;;;;;;;8.00;3.43;;;6.90;99.90;;;;;;5044108;28;20189;-63
2022/12/30 05:17:46;;;;;;;7.00;3.27;;;6.80;99.90;;;;;;5042237;28;20448;-64
2022/12/30 05:20:12;;;;;;;12.30;3.60;;;6.80;99.90;;;;;;5050739;28;20187;-63
2022/12/30 05:22:38;;;;;;;5.80;4.10;;;6.70;99.90;;;;;;5035250;28;20186;-63
2022/12/30 05:27:48;;;;;;;7.70;3.97;;;6.60;99.90;;;;;;5054229;28;20201;-64
2022/12/30 05:30:13;;;;;;;9.43;3.47;;;6.60;99.90;;;;;;5056802;28;20178;-63
2022/12/30 05:32:39;;;;;;;5.50;4.03;;;6.60;99.90;;;;;;5043114;28;20265;-63
2022/12/30 05:35:05;;;;;;;4.50;3.63;;;6.60;99.90;;;;;;5043670;28;20186;-64
2022/12/30 05:37:31;;;;;;;9.50;3.70;;;6.60;99.90;;;;;;5047881;28;20537;-63
2022/12/30 05:39:57;;;;;;;5.93;4.10;;;6.60;99.90;;;;;;5050068;28;20256;-63
2022/12/30 05:42:22;;;;;;;11.77;4.37;;;6.60;99.90;;;;;;5046507;28;20269;-63
2022/12/30 05:44:48;;;;;;;5.87;4.17;;;6.70;99.90;;;;;;5035350;28;20195;-64
2022/12/30 05:47:14;;;;;;;8.93;4.53;;;6.70;99.90;;;;;;5045988;28;20188;-63
2022/12/30 05:49:39;;;;;;;4.73;3.70;;;6.70;99.90;;;;;;5047919;28;20187;-64
2022/12/30 05:52:05;;;;;;;9.33;3.90;;;6.70;99.90;;;;;;5039623;28;20201;-63
2022/12/30 05:54:30;;;;;;;10.17;4.20;;;6.70;99.90;;;;;;5052316;28;20246;-63
2022/12/30 05:56:56;;;;;;;8.90;4.43;;;6.70;99.90;;;;;;5034215;28;20237;-63
2022/12/30 05:59:22;;;;;;;8.10;4.10;;;6.80;99.90;;;;;;5037438;28;20197;-63
2022/12/30 06:01:47;;;;;;;9.97;4.20;;;6.90;99.90;;;;;;5042292;28;20187;-64
2022/12/30 06:04:13;;;;;;;8.30;4.00;;;6.90;99.90;;;;;;5047451;28;20261;-63
2022/12/30 06:06:39;;;;;;;5.00;4.23;;;6.80;99.90;;;;;;5036650;28;20561;-62
2022/12/30 06:09:04;;;;;;;9.83;4.00;;;6.90;99.90;;;;;;5045077;28;20517;-62
2022/12/30 06:11:30;;;;;;;5.73;3.17;;;7.00;99.90;;;;;;5045483;28;20186;-63
2022/12/30 06:13:55;;;;;;;5.10;3.80;;;7.00;99.90;;;;;;5046009;28;20186;-63
2022/12/30 06:16:21;;;;;;;12.10;4.40;;;6.90;99.90;;;;;;5025110;28;20183;-63
2022/12/30 06:18:47;;;;;;;6.77;3.67;;;6.90;99.90;;;;;;5048820;28;20684;-63
2022/12/30 06:21:12;;;;;;;9.50;3.87;;;6.90;99.90;;;;;;5041664;28;20187;-62
2022/12/30 06:23:38;;;;;;;9.80;4.00;;;7.00;99.90;;;;;;5047472;28;20289;-63
2022/12/30 06:26:04;;;;;;;5.60;3.27;;;7.00;99.90;;;;;;5050088;28;20190;-63
2022/12/30 06:28:30;;;;;;;9.57;4.13;;;7.10;99.90;;;;;;5044630;28;20181;-65
2022/12/30 06:30:56;;;;;;;5.47;3.47;;;7.20;99.90;;;;;;5046891;28;20182;-63
2022/12/30 06:33:23;;;;;;;5.03;3.57;;;7.20;99.90;;;;;;5049041;28;20186;-64
2022/12/30 06:35:48;;;;;;;15.83;4.40;;;7.30;99.90;;;;;;5033883;28;20264;-64
2022/12/30 06:38:14;;;;;;;8.63;3.40;;;7.30;99.90;;;;;;5053487;28;20297;-64
2022/12/30 06:40:40;;;;;;;5.53;3.73;;;7.30;99.90;;;;;;5042216;28;20615;-66
2022/12/30 06:43:06;;;;;;;4.13;3.37;;;7.30;99.90;;;;;;5042305;28;20237;-65
2022/12/30 06:45:31;;;;;;;6.80;3.23;;;7.40;99.90;;;;;;5064252;28;20707;-65
2022/12/30 06:47:57;;;;;;;3.60;2.87;;;7.40;99.90;;;;;;5047510;28;20663;-64
2022/12/30 06:50:23;;;;;;;6.93;2.90;;;7.40;99.90;;;;;;5045574;28;20216;-64
2022/12/30 06:52:48;;;;;;;11.37;3.37;;;7.50;99.90;;;;;;5046928;28;20190;-65
2022/12/30 06:55:14;;;;;;;3.63;3.33;;;7.50;99.90;;;;;;5037916;28;20206;-65
2022/12/30 06:57:40;;;;;;;6.57;3.20;;;7.50;99.90;;;;;;5036026;28;20209;-65
2022/12/30 07:00:07;;;;;;;13.27;3.67;;;7.50;99.90;;;;;;5047953;28;20273;-62
2022/12/30 07:02:33;;;;;;;6.63;3.20;;;7.40;99.90;;;;;;5042245;28;20182;-64
2022/12/30 07:04:59;;;;;;;6.33;2.50;;;7.40;99.90;;;;;;5033685;28;20205;-64
2022/12/30 07:07:25;;;;;;;4.03;2.83;;;7.50;99.90;;;;;;5050565;28;20194;-64
2022/12/30 07:09:50;;;;;;;2.67;2.40;;;7.50;99.90;;;;;;5036696;28;20185;-63
2022/12/30 07:12:17;;;;;;;2.90;2.47;;;7.50;99.90;;;;;;5042926;28;20204;-65
2022/12/30 07:14:43;;;;;;;4.23;2.57;;;7.50;99.90;;;;;;5051129;28;20190;-63
2022/12/30 07:17:09;;;;;;;4.50;2.20;;;7.40;99.90;;;;;;5055285;28;20214;-63
2022/12/30 07:19:35;;;;;;;2.57;2.37;;;7.50;99.90;;;;;;5051931;28;20201;-65
2022/12/30 07:22:00;;;;;;;6.27;3.17;;;7.60;99.90;;;;;;5042123;28;20543;-63
2022/12/30 07:24:26;;;;;;;2.80;2.60;;;7.60;99.90;;;;;;5048013;28;20326;-63
2022/12/30 07:26:52;;;;;;;7.23;2.40;;;7.60;99.90;;;;;;5050163;28;20185;-64
2022/12/30 07:29:17;;;;;;;6.27;3.40;;;7.60;99.90;;;;;;5048250;28;20202;-65
2022/12/30 07:31:43;;;;;;;7.83;3.77;;;7.60;99.90;;;;;;5037359;28;20233;-65
2022/12/30 07:34:09;;;;;;;4.83;3.30;;;7.70;99.90;;;;;;5051253;28;20206;-65
2022/12/30 07:36:34;;;;;;;3.97;3.43;;;7.70;99.90;;;;;;5056781;28;20201;-65
2022/12/30 07:39:00;;;;;;;6.40;3.50;;;7.80;99.90;;;;;;5053863;28;20186;-65
2022/12/30 07:41:26;;;;;;;2.87;2.57;;;7.80;99.90;;;;;;5045240;28;20228;-65
2022/12/30 07:43:52;;;;;;;4.73;3.57;;;7.90;99.90;;;;;;5047855;28;20265;-66
2022/12/30 07:46:19;;;;;;;7.27;2.73;;;7.80;99.90;;;;;;5045675;28;20177;-66
2022/12/30 07:48:45;;;;;;;6.00;2.70;;;7.80;99.90;;;;;;5048258;28;20182;-65
2022/12/30 07:51:13;;;;;;;4.47;3.20;;;7.80;99.90;;;;;;5033407;28;20180;-65
2022/12/30 07:53:39;;;;;;;5.77;2.73;;;7.80;99.90;;;;;;5057366;28;20634;-66
2022/12/30 07:56:07;;;;;;;7.20;3.17;;;7.90;99.90;;;;;;5040953;28;20226;-64
2022/12/30 07:58:34;;;;;;;3.00;2.00;;;7.80;99.90;;;;;;5029826;28;20252;-65
2022/12/30 08:01:08;;;;;;;6.47;2.20;;;7.90;99.90;;;;;;5051493;28;20190;-64
2022/12/30 08:03:35;;;;;;;3.17;2.83;;;7.90;99.90;;;;;;5051135;28;20195;-63
2022/12/30 08:06:13;;;;;;;4.03;2.90;;;7.70;99.90;;;;;;5050566;28;20188;-64
2022/12/30 08:08:39;;;;;;;6.80;2.93;;;7.80;99.90;;;;;;5051465;28;20662;-65
2022/12/30 08:11:06;;;;;;;3.83;2.50;;;8.00;99.90;;;;;;5046534;28;20194;-65
2022/12/30 08:13:34;;;;;;;3.07;2.23;;;8.00;99.90;;;;;;5038401;28;20178;-65
2022/12/30 08:16:10;;;;;;;4.97;2.20;;;8.00;99.90;;;;;;5047704;28;20244;-64
2022/12/30 08:18:36;;;;;;;8.00;2.33;;;8.00;99.90;;;;;;5046657;28;20201;-64
2022/12/30 08:21:08;;;;;;;2.00;1.83;;;8.00;99.90;;;;;;5035266;28;20214;-65
2022/12/30 08:23:34;;;;;;;5.00;2.03;;;8.00;99.90;;;;;;5048911;28;20264;-64
2022/12/30 08:26:17;;;;;;;4.40;2.10;;;7.90;99.90;;;;;;5050113;28;20273;-64
2022/12/30 08:28:43;;;;;;;3.00;2.30;;;8.00;99.90;;;;;;5042148;28;20230;-65
2022/12/30 08:31:11;;;;;;;3.40;1.97;;;8.00;99.90;;;;;;5033362;28;20656;-64
2022/12/30 08:33:37;;;;;;;2.30;2.20;;;8.00;99.90;;;;;;5042383;28;20193;-63
2022/12/30 08:36:09;;;;;;;2.33;2.07;;;7.90;99.90;;;;;;5041711;28;20559;-63
2022/12/30 08:38:37;;;;;;;2.70;2.50;;;8.00;99.90;;;;;;5047829;28;20331;-64
2022/12/30 08:41:18;;;;;;;1.60;1.53;;;8.10;99.90;;;;;;5032287;28;20218;-64
2022/12/30 08:43:45;;;;;;;5.50;1.97;;;8.10;99.90;;;;;;5039863;28;20277;-63
2022/12/30 08:46:11;;;;;;;7.77;2.17;;;8.20;99.90;;;;;;5040566;28;20178;-63
2022/12/30 08:48:37;;;;;;;1.80;1.70;;;8.20;99.90;;;;;;5034980;28;20194;-63
2022/12/30 08:51:03;;;;;;;3.27;1.70;;;8.20;99.90;;;;;;5035822;28;20547;-64
2022/12/30 08:53:29;;;;;;;2.23;2.03;;;8.20;99.90;;;;;;5047173;28;20182;-64
2022/12/30 08:56:00;;;;;;;4.40;2.63;;;8.30;99.90;;;;;;5044611;28;20209;-64
2022/12/30 08:58:26;;;;;;;2.03;1.83;;;8.30;99.90;;;;;;5040270;28;20229;-65
2022/12/30 09:00:52;;;;;;;1.87;1.73;;;8.30;99.90;;;;;;5044165;28;20190;-64
2022/12/30 09:03:17;;;;;;;2.60;2.10;;;8.40;99.90;;;;;;5063091;28;20268;-62
2022/12/30 09:05:43;;;;;;;3.17;1.97;;;8.40;99.90;;;;;;5048866;28;20190;-64
2022/12/30 09:08:09;;;;;;;4.97;1.97;;;8.50;99.90;;;;;;5058399;28;20201;-64
2022/12/30 09:10:34;;;;;;;3.53;1.73;;;8.60;99.90;;;;;;5022701;28;20191;-64
2022/12/30 09:13:00;;;;;;;3.87;2.00;;;8.70;99.90;;;;;;5038051;28;20191;-63
2022/12/30 09:15:26;;;;;;;3.27;1.40;;;8.70;99.90;;;;;;5058136;28;20261;-63
2022/12/30 09:17:51;;;;;;;3.43;1.37;;;8.70;99.90;;;;;;5059917;28;20220;-65
2022/12/30 09:20:17;;;;;;;2.20;1.50;;;8.70;99.90;;;;;;5041287;28;21062;-64
2022/12/30 09:22:43;;;;;;;3.30;1.50;;;8.70;99.90;;;;;;5039327;28;20203;-64
2022/12/30 09:25:08;;;;;;;4.50;1.43;;;8.80;99.90;;;;;;5046245;28;20197;-63
2022/12/30 09:27:34;;;;;;;1.77;1.37;;;8.80;99.90;;;;;;5048479;28;20656;-64
2022/12/30 09:30:00;;;;;;;3.97;1.57;;;8.90;99.90;;;;;;5055271;28;20183;-65
2022/12/30 09:32:25;;;;;;;3.67;1.73;;;8.90;99.90;;;;;;5049939;28;20190;-65
2022/12/30 09:34:51;;;;;;;1.47;1.37;;;8.90;99.90;;;;;;5053468;28;20186;-66
2022/12/30 09:37:17;;;;;;;3.53;1.30;;;9.00;99.90;;;;;;5046461;28;20226;-64
2022/12/30 09:39:42;;;;;;;1.83;1.50;;;9.00;99.90;;;;;;5034594;28;20278;-65
2022/12/30 09:45:20;;;;;;;5.33;2.40;;;9.10;99.90;;;;;;5047941;28;20240;-64
2022/12/30 09:47:51;;;;;;;1.53;1.30;;;9.10;99.90;;;;;;5049656;28;20550;-63
2022/12/30 09:50:52;;;;;;;5.67;1.63;;;9.00;99.90;;;;;;5039975;28;20639;-63
2022/12/30 09:53:20;;;;;;;6.33;1.50;;;9.00;99.90;;;;;;5051736;28;20548;-64
2022/12/30 09:55:54;;;;;;;4.83;1.50;;;9.10;99.90;;;;;;5061480;28;20244;-64
2022/12/30 09:58:26;;;;;;;2.80;1.77;;;9.10;99.90;;;;;;5064562;28;20223;-65
2022/12/30 10:00:53;;;;;;;1.30;1.20;;;9.10;99.90;;;;;;5049413;28;20194;-64
2022/12/30 10:03:22;;;;;;;4.93;1.17;;;9.20;99.90;;;;;;5048957;28;20194;-64
2022/12/30 10:06:02;;;;;;;2.67;2.47;;;9.20;99.90;;;;;;5045703;28;20205;-64
2022/12/30 10:08:33;;;;;;;2.40;1.50;;;9.10;99.90;;;;;;5054171;28;20560;-63
2022/12/30 10:11:28;;;;;;;6.10;2.03;;;9.20;99.90;;;;;;5049118;28;20193;-64
2022/12/30 10:14:09;;;;;;;2.83;2.23;;;9.20;99.90;;;;;;5032570;28;20194;-65
2022/12/30 10:16:56;;;;;;;3.60;1.30;;;9.30;99.90;;;;;;5044225;28;20285;-64
2022/12/30 10:19:30;;;;;;;2.00;1.40;;;9.30;99.90;;;;;;5052580;28;20197;-64
2022/12/30 10:22:14;;;;;;;2.03;1.40;;;9.40;99.90;;;;;;5049646;28;20186;-64
2022/12/30 10:24:55;;;;;;;1.33;1.23;;;9.40;99.90;;;;;;5040474;28;20554;-65
2022/12/30 10:27:26;;;;;;;5.20;1.80;;;9.50;99.90;;;;;;5040506;28;20185;-63
2022/12/30 10:29:52;;;;;;;3.70;2.57;;;9.50;99.90;;;;;;5048611;28;20256;-64
2022/12/30 10:32:21;;;;;;;1.57;1.47;;;9.50;99.90;;;;;;5053762;28;20186;-63
2022/12/30 10:34:58;;;;;;;5.10;1.60;;;9.50;99.90;;;;;;5049563;28;20179;-63
2022/12/30 10:37:32;;;;;;;8.53;1.57;;;9.50;99.90;;;;;;5043024;28;20553;-66
2022/12/30 10:39:59;;;;;;;5.03;1.67;;;9.60;99.90;;;;;;5040964;28;20282;-64
2022/12/30 10:42:37;;;;;;;4.20;1.60;;;9.60;99.90;;;;;;5042907;28;20178;-63
2022/12/30 10:45:44;;;;;;;3.87;2.50;;;9.70;99.90;;;;;;5051467;28;20260;-64
2022/12/30 10:48:36;;;;;;;4.10;2.13;;;9.70;99.90;;;;;;5042780;28;20206;-62
2022/12/30 10:51:02;;;;;;;1.00;0.90;;;9.70;99.90;;;;;;5044445;28;20185;-62
2022/12/30 10:53:30;;;;;;;4.37;2.30;;;9.80;99.90;;;;;;5045469;28;20197;-64
2022/12/30 10:55:59;;;;;;;1.70;1.60;;;9.80;99.90;;;;;;5056328;28;20588;-65
2022/12/30 10:58:43;;;;;;;4.60;1.20;;;9.80;99.90;;;;;;5050785;28;20769;-67
2022/12/30 11:01:14;;;;;;;1.23;1.13;;;9.90;99.90;;;;;;5044676;28;20190;-65
2022/12/30 11:03:56;;;;;;;6.07;1.30;;;10.00;99.90;;;;;;5064206;28;20184;-65
2022/12/30 11:06:31;;;;;;;4.30;1.60;;;10.00;99.90;;;;;;5045344;28;20186;-64
2022/12/30 11:09:12;;;;;;;2.20;1.27;;;10.00;99.90;;;;;;5050165;28;20209;-62
2022/12/30 11:14:45;;;;;;;4.03;1.57;;;10.00;99.90;;;;;;5041572;28;20225;-64
2022/12/30 11:17:32;;;;;;;1.77;1.67;;;10.00;99.90;;;;;;5034487;28;20305;-65
2022/12/30 11:20:05;;;;;;;1.67;1.20;;;10.00;99.90;;;;;;5041377;28;20643;-63
2022/12/30 11:22:31;;;;;;;1.73;1.20;;;10.00;99.90;;;;;;5042834;28;20255;-64
2022/12/30 11:25:16;;;;;;;1.87;1.63;;;10.00;99.90;;;;;;5051167;28;20627;-65
2022/12/30 11:27:46;;;;;;;2.37;1.70;;;10.00;99.90;;;;;;5042563;28;20187;-64
2022/12/30 11:30:26;;;;;;;1.40;1.30;;;9.90;99.90;;;;;;5052019;28;20716;-65
2022/12/30 11:32:54;;;;;;;2.20;1.77;;;9.80;99.90;;;;;;5049484;28;20187;-64
2022/12/30 11:35:39;;;;;;;5.20;1.60;;;9.70;99.90;;;;;;5047888;28;20186;-64
2022/12/30 11:38:27;;;;;;;1.10;1.03;;;9.70;99.90;;;;;;5038736;28;20217;-64
2022/12/30 11:40:53;;;;;;;1.70;1.57;;;9.70;99.90;;;;;;5040239;28;20178;-64
2022/12/30 11:43:20;;;;;;;1.30;1.20;;;9.60;99.90;;;;;;5045965;28;20186;-64
2022/12/30 11:46:10;;;;;;;3.50;1.30;;;9.70;99.90;;;;;;5047255;28;20237;-65
2022/12/30 11:48:44;;;;;;;2.17;2.07;;;9.50;99.90;;;;;;5056417;28;20193;-66
2022/12/30 11:51:28;;;;;;;3.00;1.67;;;9.40;99.90;;;;;;5053934;28;20185;-63
2022/12/30 11:54:05;;;;;;;1.93;1.47;;;9.40;99.90;;;;;;5033108;28;20190;-64
2022/12/30 11:56:31;;;;;;;2.07;1.60;;;9.50;99.90;;;;;;5036332;28;20204;-64
2022/12/30 11:59:06;;;;;;;4.17;2.83;;;9.50;99.90;;;;;;5044924;28;20186;-64
2022/12/30 12:01:42;;;;;;;2.87;1.57;;;9.50;99.90;;;;;;5038657;28;20628;-63
2022/12/30 12:04:33;;;;;;;6.70;1.80;;;9.50;99.90;;;;;;5040338;28;20192;-63
2022/12/30 12:06:59;;;;;;;2.60;1.40;;;9.40;99.90;;;;;;5038164;28;20194;-63
2022/12/30 12:09:41;;;;;;;1.97;1.87;;;9.40;99.90;;;;;;5045402;28;20293;-65
2022/12/30 12:12:12;;;;;;;0.90;0.90;;;9.40;99.90;;;;;;5053988;28;20198;-63
2022/12/30 12:15:16;;;;;;;1.47;1.10;;;9.40;99.90;;;;;;5047136;28;20194;-63
2022/12/30 12:17:56;;;;;;;3.67;1.70;;;9.50;99.90;;;;;;5046147;28;20218;-63
2022/12/30 12:20:53;;;;;;;2.03;1.40;;;9.60;99.90;;;;;;5038693;28;20265;-62
2022/12/30 12:23:48;;;;;;;1.67;1.33;;;9.80;99.90;;;;;;5040055;28;20182;-62
2022/12/30 12:26:21;;;;;;;5.13;1.30;;;9.80;99.90;;;;;;5047120;28;20189;-62
2022/12/30 12:28:49;;;;;;;5.00;2.67;;;9.70;99.90;;;;;;5041860;28;20182;-63
2022/12/30 12:31:30;;;;;;;1.07;0.93;;;9.80;99.90;;;;;;5054815;28;20547;-64
2022/12/30 12:34:01;;;;;;;1.70;1.60;;;9.80;99.90;;;;;;5051690;28;20190;-63
2022/12/30 12:36:56;;;;;;;5.37;1.73;;;9.90;99.90;;;;;;5048338;28;20257;-62
2022/12/30 12:39:41;;;;;;;2.43;1.33;;;9.80;99.90;;;;;;5009301;28;20270;-63
2022/12/30 12:42:20;;;;;;;1.40;1.40;;;9.80;99.90;;;;;;5052926;28;20193;-63
2022/12/30 12:45:15;;;;;;;2.23;1.17;;;9.80;99.90;;;;;;5048348;28;20785;-64
2022/12/30 12:47:43;;;;;;;1.10;1.00;;;9.70;99.90;;;;;;5044930;28;20182;-63
2022/12/30 12:50:42;;;;;;;3.60;1.53;;;9.60;99.90;;;;;;5042250;28;20182;-64
2022/12/30 12:53:33;;;;;;;1.40;1.30;;;9.60;99.90;;;;;;5045309;28;20174;-64
2022/12/30 12:56:27;;;;;;;2.90;1.13;;;9.60;99.90;;;;;;5042160;28;20217;-63
2022/12/30 12:59:12;;;;;;;1.57;1.47;;;9.60;99.90;;;;;;5047911;28;20290;-63
2022/12/30 13:01:56;;;;;;;1.70;1.10;;;9.60;99.90;;;;;;5051399;28;20266;-62
2022/12/30 13:04:47;;;;;;;1.30;1.20;;;9.50;99.90;;;;;;5055519;28;20190;-63
2022/12/30 13:07:37;;;;;;;1.10;1.07;;;9.50;99.90;;;;;;5053550;28;20212;-62
2022/12/30 13:10:30;;;;;;;1.00;1.00;;;9.50;99.90;;;;;;5053904;28;20178;-62
2022/12/30 13:13:19;;;;;;;1.70;0.70;;;9.60;99.90;;;;;;5068733;28;20209;-61
2022/12/30 13:15:58;;;;;;;3.97;1.20;;;9.60;99.90;;;;;;5081309;28;20719;-63
2022/12/30 13:18:27;;;;;;;1.00;1.00;;;9.60;99.90;;;;;;5037239;28;20797;-64
2022/12/30 13:20:56;;;;;;;0.93;0.93;;;9.60;99.90;;;;;;5043463;28;20710;-64
2022/12/30 13:23:29;;;;;;;1.20;1.00;;;9.60;99.90;;;;;;5046123;28;20240;-63
2022/12/30 13:26:00;;;;;;;1.10;1.00;;;9.70;99.90;;;;;;5058259;28;20194;-62
2022/12/30 13:28:29;;;;;;;1.40;1.20;;;9.80;99.90;;;;;;5066179;28;20190;-60
2022/12/30 13:31:25;;;;;;;1.17;0.90;;;9.80;99.90;;;;;;5054792;28;20707;-63
2022/12/30 13:34:12;;;;;;;3.70;1.50;;;9.90;99.90;;;;;;5041306;28;20181;-62
2022/12/30 13:36:47;;;;;;;2.03;1.33;;;9.90;99.90;;;;;;5040105;28;20194;-64
2022/12/30 13:39:37;;;;;;;0.83;0.80;;;9.90;99.90;;;;;;5051981;28;20192;-62
2022/12/30 13:42:23;;;;;;;1.40;1.30;;;10.00;99.90;;;;;;5046430;28;20652;-62
2022/12/30 13:44:49;;;;;;;4.43;1.87;;;10.00;99.90;;;;;;5054898;28;20277;-63
2022/12/30 13:47:36;;;;;;;1.00;1.00;;;10.00;99.90;;;;;;5045599;28;20230;-62
2022/12/30 13:50:21;;;;;;;0.80;0.80;;;10.10;99.90;;;;;;5048362;28;20240;-64
2022/12/30 13:52:58;;;;;;;1.37;1.20;;;10.20;99.90;;;;;;5049646;28;20186;-62
2022/12/30 13:55:34;;;;;;;2.97;1.20;;;10.30;99.90;;;;;;5063300;28;20198;-63
2022/12/30 13:58:21;;;;;;;0.80;0.80;;;10.30;99.90;;;;;;5063283;28;20548;-64
2022/12/30 14:01:06;;;;;;;0.90;0.90;;;10.40;99.90;;;;;;5035485;28;20213;-64
2022/12/30 14:03:36;;;;;;;0.93;0.93;;;10.50;99.90;;;;;;5046460;28;20218;-61
2022/12/30 14:06:20;;;;;;;2.63;1.93;;;10.60;99.90;;;;;;5054391;28;20186;-62
2022/12/30 14:08:50;;;;;;;2.53;1.50;;;10.60;99.90;;;;;;5054316;28;20189;-64
2022/12/30 14:11:17;;;;;;;1.73;1.58;;;10.60;99.90;;;;;;5048874;28;20201;-63
2022/12/30 14:14:04;;;;;;;1.38;1.23;;;10.60;99.90;;;;;;5056717;28;20186;-63
2022/12/30 14:16:44;;;;;;;1.35;1.25;;;10.60;99.90;;;;;;5047616;28;20639;-63